sensor_id;sensor_type;location;lat;lon;timestamp;P1;durP1;ratioP1;P2;durP2;ratioP2
10410;SDS011;5251;52.112;8.606;2023-04-15T00:01:18;6.50;;;5.10;;
10410;SDS011;5251;52.112;8.606;2023-04-15T00:03:44;6.13;;;5.13;;
10410;SDS011;5251;52.112;8.606;2023-04-15T00:06:10;6.28;;;5.15;;
10410;SDS011;5251;52.112;8.606;2023-04-15T00:08:36;5.78;;;5.18;;
10410;SDS011;5251;52.112;8.606;2023-04-15T00:11:01;5.70;;;5.05;;
10410;SDS011;5251;52.112;8.606;2023-04-15T00:13:29;5.40;;;4.90;;
10410;SDS011;5251;52.112;8.606;2023-04-15T00:15:58;5.57;;;4.80;;
10410;SDS011;5251;52.112;8.606;2023-04-15T00:18:24;7.97;;;5.45;;
10410;SDS011;5251;52.112;8.606;2023-04-15T00:20:50;5.45;;;4.95;;
10410;SDS011;5251;52.112;8.606;2023-04-15T00:23:16;5.78;;;4.93;;
10410;SDS011;5251;52.112;8.606;2023-04-15T00:25:42;5.50;;;4.90;;
10410;SDS011;5251;52.112;8.606;2023-04-15T00:28:07;5.53;;;4.82;;
10410;SDS011;5251;52.112;8.606;2023-04-15T00:30:33;5.40;;;4.90;;
10410;SDS011;5251;52.112;8.606;2023-04-15T00:32:59;5.38;;;4.85;;
10410;SDS011;5251;52.112;8.606;2023-04-15T00:35:28;6.05;;;5.13;;
10410;SDS011;5251;52.112;8.606;2023-04-15T00:37:56;6.90;;;5.65;;
10410;SDS011;5251;52.112;8.606;2023-04-15T00:40:22;6.68;;;5.60;;
10410;SDS011;5251;52.112;8.606;2023-04-15T00:42:49;5.00;;;4.47;;
10410;SDS011;5251;52.112;8.606;2023-04-15T00:45:15;5.75;;;5.15;;
10410;SDS011;5251;52.112;8.606;2023-04-15T00:47:41;6.70;;;5.45;;
10410;SDS011;5251;52.112;8.606;2023-04-15T00:50:07;7.05;;;5.65;;
10410;SDS011;5251;52.112;8.606;2023-04-15T00:52:34;5.63;;;4.78;;
10410;SDS011;5251;52.112;8.606;2023-04-15T00:55:00;5.43;;;4.90;;
10410;SDS011;5251;52.112;8.606;2023-04-15T00:57:26;5.47;;;4.97;;
10410;SDS011;5251;52.112;8.606;2023-04-15T00:59:53;6.47;;;5.82;;
10410;SDS011;5251;52.112;8.606;2023-04-15T01:02:20;6.05;;;5.45;;
10410;SDS011;5251;52.112;8.606;2023-04-15T01:04:47;5.75;;;5.10;;
10410;SDS011;5251;52.112;8.606;2023-04-15T01:07:13;8.38;;;5.47;;
10410;SDS011;5251;52.112;8.606;2023-04-15T01:09:38;7.22;;;5.78;;
10410;SDS011;5251;52.112;8.606;2023-04-15T01:12:05;6.03;;;5.38;;
10410;SDS011;5251;52.112;8.606;2023-04-15T01:14:34;6.00;;;5.40;;
10410;SDS011;5251;52.112;8.606;2023-04-15T01:17:00;6.50;;;5.90;;
10410;SDS011;5251;52.112;8.606;2023-04-15T01:19:26;6.43;;;5.38;;
10410;SDS011;5251;52.112;8.606;2023-04-15T01:21:52;5.68;;;5.10;;
10410;SDS011;5251;52.112;8.606;2023-04-15T01:24:18;6.20;;;5.20;;
10410;SDS011;5251;52.112;8.606;2023-04-15T01:26:44;6.03;;;5.45;;
10410;SDS011;5251;52.112;8.606;2023-04-15T01:29:10;6.60;;;5.25;;
10410;SDS011;5251;52.112;8.606;2023-04-15T01:31:36;5.85;;;5.30;;
10410;SDS011;5251;52.112;8.606;2023-04-15T01:34:01;5.97;;;5.38;;
10410;SDS011;5251;52.112;8.606;2023-04-15T01:36:27;6.20;;;5.43;;
10410;SDS011;5251;52.112;8.606;2023-04-15T01:38:54;5.97;;;5.38;;
10410;SDS011;5251;52.112;8.606;2023-04-15T01:41:20;7.20;;;5.07;;
10410;SDS011;5251;52.112;8.606;2023-04-15T01:43:49;6.45;;;5.40;;
10410;SDS011;5251;52.112;8.606;2023-04-15T01:46:15;6.65;;;5.80;;
10410;SDS011;5251;52.112;8.606;2023-04-15T01:48:40;6.15;;;5.55;;
10410;SDS011;5251;52.112;8.606;2023-04-15T01:51:06;5.97;;;5.35;;
10410;SDS011;5251;52.112;8.606;2023-04-15T01:53:32;6.65;;;5.80;;
10410;SDS011;5251;52.112;8.606;2023-04-15T01:55:58;6.82;;;5.85;;
10410;SDS011;5251;52.112;8.606;2023-04-15T01:58:24;6.10;;;5.50;;
10410;SDS011;5251;52.112;8.606;2023-04-15T02:00:49;6.38;;;5.72;;
10410;SDS011;5251;52.112;8.606;2023-04-15T02:03:15;6.10;;;5.50;;
10410;SDS011;5251;52.112;8.606;2023-04-15T02:05:41;6.35;;;5.55;;
10410;SDS011;5251;52.112;8.606;2023-04-15T02:08:06;6.15;;;5.32;;
10410;SDS011;5251;52.112;8.606;2023-04-15T02:10:33;5.97;;;5.32;;
10410;SDS011;5251;52.112;8.606;2023-04-15T02:12:59;6.50;;;5.35;;
10410;SDS011;5251;52.112;8.606;2023-04-15T02:15:25;5.68;;;5.05;;
10410;SDS011;5251;52.112;8.606;2023-04-15T02:17:50;6.90;;;5.40;;
10410;SDS011;5251;52.112;8.606;2023-04-15T02:20:17;6.50;;;5.60;;
10410;SDS011;5251;52.112;8.606;2023-04-15T02:22:43;6.65;;;5.80;;
10410;SDS011;5251;52.112;8.606;2023-04-15T02:25:09;5.75;;;5.25;;
10410;SDS011;5251;52.112;8.606;2023-04-15T02:27:35;7.78;;;6.03;;
10410;SDS011;5251;52.112;8.606;2023-04-15T02:30:01;6.10;;;5.50;;
10410;SDS011;5251;52.112;8.606;2023-04-15T02:32:27;5.90;;;5.30;;
10410;SDS011;5251;52.112;8.606;2023-04-15T02:34:53;6.70;;;5.75;;
10410;SDS011;5251;52.112;8.606;2023-04-15T02:37:19;8.43;;;6.18;;
10410;SDS011;5251;52.112;8.606;2023-04-15T02:39:44;7.07;;;6.10;;
10410;SDS011;5251;52.112;8.606;2023-04-15T02:42:10;6.63;;;5.68;;
10410;SDS011;5251;52.112;8.606;2023-04-15T02:44:37;7.13;;;5.85;;
10410;SDS011;5251;52.112;8.606;2023-04-15T02:47:02;6.65;;;5.90;;
10410;SDS011;5251;52.112;8.606;2023-04-15T02:49:30;6.47;;;5.53;;
10410;SDS011;5251;52.112;8.606;2023-04-15T02:51:56;7.50;;;6.00;;
10410;SDS011;5251;52.112;8.606;2023-04-15T02:54:22;6.30;;;5.50;;
10410;SDS011;5251;52.112;8.606;2023-04-15T02:56:48;6.38;;;5.75;;
10410;SDS011;5251;52.112;8.606;2023-04-15T02:59:14;7.50;;;6.07;;
10410;SDS011;5251;52.112;8.606;2023-04-15T03:01:40;6.95;;;6.20;;
10410;SDS011;5251;52.112;8.606;2023-04-15T03:04:06;6.90;;;6.20;;
10410;SDS011;5251;52.112;8.606;2023-04-15T03:06:32;6.75;;;5.70;;
10410;SDS011;5251;52.112;8.606;2023-04-15T03:08:59;7.55;;;6.22;;
10410;SDS011;5251;52.112;8.606;2023-04-15T03:11:26;6.78;;;5.68;;
10410;SDS011;5251;52.112;8.606;2023-04-15T03:13:52;7.97;;;5.93;;
10410;SDS011;5251;52.112;8.606;2023-04-15T03:16:18;6.97;;;6.20;;
10410;SDS011;5251;52.112;8.606;2023-04-15T03:18:43;7.88;;;6.00;;
10410;SDS011;5251;52.112;8.606;2023-04-15T03:21:09;7.78;;;6.28;;
10410;SDS011;5251;52.112;8.606;2023-04-15T03:23:34;7.93;;;5.90;;
10410;SDS011;5251;52.112;8.606;2023-04-15T03:26:00;6.95;;;6.03;;
10410;SDS011;5251;52.112;8.606;2023-04-15T03:28:26;7.32;;;6.30;;
10410;SDS011;5251;52.112;8.606;2023-04-15T03:30:53;7.32;;;6.20;;
10410;SDS011;5251;52.112;8.606;2023-04-15T03:33:19;6.93;;;5.90;;
10410;SDS011;5251;52.112;8.606;2023-04-15T03:35:44;8.20;;;5.70;;
10410;SDS011;5251;52.112;8.606;2023-04-15T03:38:10;6.72;;;6.03;;
10410;SDS011;5251;52.112;8.606;2023-04-15T03:40:36;6.30;;;5.70;;
10410;SDS011;5251;52.112;8.606;2023-04-15T03:43:02;8.65;;;5.80;;
10410;SDS011;5251;52.112;8.606;2023-04-15T03:45:28;6.35;;;5.53;;
10410;SDS011;5251;52.112;8.606;2023-04-15T03:47:53;6.55;;;5.40;;
10410;SDS011;5251;52.112;8.606;2023-04-15T03:50:19;6.78;;;5.75;;
10410;SDS011;5251;52.112;8.606;2023-04-15T03:52:45;6.78;;;5.82;;
10410;SDS011;5251;52.112;8.606;2023-04-15T03:55:10;6.45;;;5.78;;
10410;SDS011;5251;52.112;8.606;2023-04-15T03:57:36;7.47;;;6.05;;
10410;SDS011;5251;52.112;8.606;2023-04-15T04:00:02;6.30;;;5.55;;
10410;SDS011;5251;52.112;8.606;2023-04-15T04:02:31;6.13;;;5.43;;
10410;SDS011;5251;52.112;8.606;2023-04-15T04:04:57;6.65;;;5.95;;
10410;SDS011;5251;52.112;8.606;2023-04-15T04:07:23;7.05;;;5.60;;
10410;SDS011;5251;52.112;8.606;2023-04-15T04:09:49;6.20;;;5.57;;
10410;SDS011;5251;52.112;8.606;2023-04-15T04:12:14;7.18;;;5.53;;
10410;SDS011;5251;52.112;8.606;2023-04-15T04:14:40;6.60;;;5.88;;
10410;SDS011;5251;52.112;8.606;2023-04-15T04:17:06;6.97;;;5.88;;
10410;SDS011;5251;52.112;8.606;2023-04-15T04:19:32;7.18;;;6.28;;
10410;SDS011;5251;52.112;8.606;2023-04-15T04:21:57;7.32;;;6.57;;
10410;SDS011;5251;52.112;8.606;2023-04-15T04:24:23;6.78;;;6.03;;
10410;SDS011;5251;52.112;8.606;2023-04-15T04:26:49;6.95;;;6.25;;
10410;SDS011;5251;52.112;8.606;2023-04-15T04:29:15;7.70;;;6.15;;
10410;SDS011;5251;52.112;8.606;2023-04-15T04:31:40;8.60;;;7.05;;
10410;SDS011;5251;52.112;8.606;2023-04-15T04:34:06;7.20;;;6.50;;
10410;SDS011;5251;52.112;8.606;2023-04-15T04:36:31;11.07;;;6.82;;
10410;SDS011;5251;52.112;8.606;2023-04-15T04:38:57;8.27;;;6.75;;
10410;SDS011;5251;52.112;8.606;2023-04-15T04:41:23;8.27;;;7.47;;
10410;SDS011;5251;52.112;8.606;2023-04-15T04:43:48;9.73;;;7.35;;
10410;SDS011;5251;52.112;8.606;2023-04-15T04:46:14;10.25;;;8.27;;
10410;SDS011;5251;52.112;8.606;2023-04-15T04:48:39;9.73;;;8.45;;
10410;SDS011;5251;52.112;8.606;2023-04-15T04:51:05;9.30;;;8.27;;
10410;SDS011;5251;52.112;8.606;2023-04-15T04:53:31;10.85;;;8.27;;
10410;SDS011;5251;52.112;8.606;2023-04-15T04:55:57;11.88;;;9.40;;
10410;SDS011;5251;52.112;8.606;2023-04-15T04:58:23;10.50;;;8.35;;
10410;SDS011;5251;52.112;8.606;2023-04-15T05:00:49;10.45;;;8.45;;
10410;SDS011;5251;52.112;8.606;2023-04-15T05:03:15;10.30;;;8.52;;
10410;SDS011;5251;52.112;8.606;2023-04-15T05:05:40;10.95;;;9.13;;
10410;SDS011;5251;52.112;8.606;2023-04-15T05:08:06;10.23;;;8.25;;
10410;SDS011;5251;52.112;8.606;2023-04-15T05:10:31;10.30;;;8.60;;
10410;SDS011;5251;52.112;8.606;2023-04-15T05:12:57;10.27;;;8.57;;
10410;SDS011;5251;52.112;8.606;2023-04-15T05:15:23;10.20;;;8.57;;
10410;SDS011;5251;52.112;8.606;2023-04-15T05:17:48;11.55;;;9.75;;
10410;SDS011;5251;52.112;8.606;2023-04-15T05:20:14;12.32;;;9.50;;
10410;SDS011;5251;52.112;8.606;2023-04-15T05:22:39;11.32;;;9.32;;
10410;SDS011;5251;52.112;8.606;2023-04-15T05:25:05;12.35;;;9.80;;
10410;SDS011;5251;52.112;8.606;2023-04-15T05:27:31;12.32;;;10.18;;
10410;SDS011;5251;52.112;8.606;2023-04-15T05:29:57;14.07;;;10.18;;
10410;SDS011;5251;52.112;8.606;2023-04-15T05:32:22;12.75;;;10.52;;
10410;SDS011;5251;52.112;8.606;2023-04-15T05:34:48;11.38;;;9.90;;
10410;SDS011;5251;52.112;8.606;2023-04-15T05:37:13;12.63;;;10.48;;
10410;SDS011;5251;52.112;8.606;2023-04-15T05:39:39;12.10;;;9.90;;
10410;SDS011;5251;52.112;8.606;2023-04-15T05:42:05;13.50;;;10.27;;
10410;SDS011;5251;52.112;8.606;2023-04-15T05:44:30;13.13;;;10.43;;
10410;SDS011;5251;52.112;8.606;2023-04-15T05:46:56;13.35;;;10.68;;
10410;SDS011;5251;52.112;8.606;2023-04-15T05:49:22;13.02;;;10.55;;
10410;SDS011;5251;52.112;8.606;2023-04-15T05:51:47;12.18;;;10.45;;
10410;SDS011;5251;52.112;8.606;2023-04-15T05:54:13;12.02;;;10.20;;
10410;SDS011;5251;52.112;8.606;2023-04-15T05:56:39;13.20;;;10.57;;
10410;SDS011;5251;52.112;8.606;2023-04-15T05:59:05;12.57;;;10.13;;
10410;SDS011;5251;52.112;8.606;2023-04-15T06:01:32;11.55;;;10.05;;
10410;SDS011;5251;52.112;8.606;2023-04-15T06:03:58;13.75;;;10.90;;
10410;SDS011;5251;52.112;8.606;2023-04-15T06:06:24;12.50;;;10.30;;
10410;SDS011;5251;52.112;8.606;2023-04-15T06:08:51;13.25;;;10.52;;
10410;SDS011;5251;52.112;8.606;2023-04-15T06:11:16;13.35;;;11.10;;
10410;SDS011;5251;52.112;8.606;2023-04-15T06:13:42;12.25;;;10.23;;
10410;SDS011;5251;52.112;8.606;2023-04-15T06:16:08;12.57;;;10.50;;
10410;SDS011;5251;52.112;8.606;2023-04-15T06:18:33;14.23;;;11.38;;
10410;SDS011;5251;52.112;8.606;2023-04-15T06:20:59;13.50;;;10.27;;
10410;SDS011;5251;52.112;8.606;2023-04-15T06:23:24;13.55;;;10.65;;
10410;SDS011;5251;52.112;8.606;2023-04-15T06:25:51;15.85;;;12.32;;
10410;SDS011;5251;52.112;8.606;2023-04-15T06:28:16;14.75;;;12.00;;
10410;SDS011;5251;52.112;8.606;2023-04-15T06:30:42;15.52;;;12.25;;
10410;SDS011;5251;52.112;8.606;2023-04-15T06:33:07;21.05;;;14.88;;
10410;SDS011;5251;52.112;8.606;2023-04-15T06:35:34;21.52;;;17.02;;
10410;SDS011;5251;52.112;8.606;2023-04-15T06:38:00;20.55;;;16.23;;
10410;SDS011;5251;52.112;8.606;2023-04-15T06:40:25;22.75;;;17.58;;
10410;SDS011;5251;52.112;8.606;2023-04-15T06:42:52;26.42;;;18.50;;
10410;SDS011;5251;52.112;8.606;2023-04-15T06:45:17;23.00;;;17.38;;
10410;SDS011;5251;52.112;8.606;2023-04-15T06:47:43;24.10;;;17.08;;
10410;SDS011;5251;52.112;8.606;2023-04-15T06:50:08;24.00;;;16.48;;
10410;SDS011;5251;52.112;8.606;2023-04-15T06:52:35;23.58;;;17.27;;
10410;SDS011;5251;52.112;8.606;2023-04-15T06:55:01;23.05;;;16.42;;
10410;SDS011;5251;52.112;8.606;2023-04-15T06:57:26;24.02;;;17.00;;
10410;SDS011;5251;52.112;8.606;2023-04-15T06:59:52;24.35;;;16.30;;
10410;SDS011;5251;52.112;8.606;2023-04-15T07:02:18;28.13;;;18.27;;
10410;SDS011;5251;52.112;8.606;2023-04-15T07:04:45;28.38;;;18.40;;
10410;SDS011;5251;52.112;8.606;2023-04-15T07:07:10;29.50;;;18.42;;
10410;SDS011;5251;52.112;8.606;2023-04-15T07:09:36;31.42;;;18.77;;
10410;SDS011;5251;52.112;8.606;2023-04-15T07:12:02;29.98;;;18.42;;
10410;SDS011;5251;52.112;8.606;2023-04-15T07:14:28;29.90;;;19.17;;
10410;SDS011;5251;52.112;8.606;2023-04-15T07:16:54;30.23;;;18.75;;
10410;SDS011;5251;52.112;8.606;2023-04-15T07:19:20;25.58;;;16.92;;
10410;SDS011;5251;52.112;8.606;2023-04-15T07:21:46;27.40;;;17.63;;
10410;SDS011;5251;52.112;8.606;2023-04-15T07:24:11;27.98;;;16.85;;
10410;SDS011;5251;52.112;8.606;2023-04-15T07:26:41;24.30;;;15.18;;
10410;SDS011;5251;52.112;8.606;2023-04-15T07:29:06;21.17;;;14.40;;
10410;SDS011;5251;52.112;8.606;2023-04-15T07:31:32;20.73;;;13.60;;
10410;SDS011;5251;52.112;8.606;2023-04-15T07:33:57;20.73;;;13.75;;
10410;SDS011;5251;52.112;8.606;2023-04-15T07:36:23;18.00;;;12.85;;
10410;SDS011;5251;52.112;8.606;2023-04-15T07:38:49;18.70;;;11.93;;
10410;SDS011;5251;52.112;8.606;2023-04-15T07:41:15;16.05;;;11.43;;
10410;SDS011;5251;52.112;8.606;2023-04-15T07:43:40;17.40;;;11.82;;
10410;SDS011;5251;52.112;8.606;2023-04-15T07:46:06;16.52;;;11.80;;
10410;SDS011;5251;52.112;8.606;2023-04-15T07:48:32;16.73;;;11.88;;
10410;SDS011;5251;52.112;8.606;2023-04-15T07:50:58;17.25;;;11.95;;
10410;SDS011;5251;52.112;8.606;2023-04-15T07:53:24;16.23;;;11.68;;
10410;SDS011;5251;52.112;8.606;2023-04-15T07:55:50;16.10;;;11.60;;
10410;SDS011;5251;52.112;8.606;2023-04-15T07:58:15;14.50;;;11.32;;
10410;SDS011;5251;52.112;8.606;2023-04-15T08:00:41;13.98;;;10.57;;
10410;SDS011;5251;52.112;8.606;2023-04-15T08:03:06;16.00;;;11.02;;
10410;SDS011;5251;52.112;8.606;2023-04-15T08:05:32;16.50;;;12.00;;
10410;SDS011;5251;52.112;8.606;2023-04-15T08:07:58;16.10;;;11.75;;
10410;SDS011;5251;52.112;8.606;2023-04-15T08:10:23;15.50;;;11.27;;
10410;SDS011;5251;52.112;8.606;2023-04-15T08:12:49;13.57;;;10.05;;
10410;SDS011;5251;52.112;8.606;2023-04-15T08:15:18;15.55;;;11.55;;
10410;SDS011;5251;52.112;8.606;2023-04-15T08:17:44;13.25;;;10.20;;
10410;SDS011;5251;52.112;8.606;2023-04-15T08:20:10;14.80;;;10.77;;
10410;SDS011;5251;52.112;8.606;2023-04-15T08:22:37;14.30;;;10.50;;
10410;SDS011;5251;52.112;8.606;2023-04-15T08:25:03;13.82;;;10.25;;
10410;SDS011;5251;52.112;8.606;2023-04-15T08:27:29;14.68;;;11.00;;
10410;SDS011;5251;52.112;8.606;2023-04-15T08:29:55;13.25;;;10.23;;
10410;SDS011;5251;52.112;8.606;2023-04-15T08:32:20;12.57;;;10.40;;
10410;SDS011;5251;52.112;8.606;2023-04-15T08:34:46;13.15;;;10.40;;
10410;SDS011;5251;52.112;8.606;2023-04-15T08:37:12;13.65;;;10.95;;
10410;SDS011;5251;52.112;8.606;2023-04-15T08:39:38;13.88;;;10.60;;
10410;SDS011;5251;52.112;8.606;2023-04-15T08:42:04;13.60;;;11.13;;
10410;SDS011;5251;52.112;8.606;2023-04-15T08:44:35;13.15;;;10.35;;
10410;SDS011;5251;52.112;8.606;2023-04-15T08:47:02;14.05;;;10.55;;
10410;SDS011;5251;52.112;8.606;2023-04-15T08:49:31;11.73;;;10.15;;
10410;SDS011;5251;52.112;8.606;2023-04-15T08:51:59;12.60;;;10.52;;
10410;SDS011;5251;52.112;8.606;2023-04-15T08:54:25;13.07;;;9.95;;
10410;SDS011;5251;52.112;8.606;2023-04-15T08:56:51;10.10;;;8.43;;
10410;SDS011;5251;52.112;8.606;2023-04-15T08:59:18;11.82;;;9.38;;
10410;SDS011;5251;52.112;8.606;2023-04-15T09:01:45;11.40;;;8.68;;
10410;SDS011;5251;52.112;8.606;2023-04-15T09:04:12;10.55;;;8.98;;
10410;SDS011;5251;52.112;8.606;2023-04-15T09:06:38;10.98;;;9.02;;
10410;SDS011;5251;52.112;8.606;2023-04-15T09:09:05;11.05;;;9.05;;
10410;SDS011;5251;52.112;8.606;2023-04-15T09:11:30;12.43;;;8.63;;
10410;SDS011;5251;52.112;8.606;2023-04-15T09:13:56;11.80;;;9.30;;
10410;SDS011;5251;52.112;8.606;2023-04-15T09:16:21;10.00;;;8.38;;
10410;SDS011;5251;52.112;8.606;2023-04-15T09:18:47;11.20;;;8.93;;
10410;SDS011;5251;52.112;8.606;2023-04-15T09:21:14;11.38;;;8.65;;
10410;SDS011;5251;52.112;8.606;2023-04-15T09:23:53;11.23;;;9.38;;
10410;SDS011;5251;52.112;8.606;2023-04-15T09:26:29;10.35;;;8.93;;
10410;SDS011;5251;52.112;8.606;2023-04-15T09:29:06;10.65;;;8.20;;
10410;SDS011;5251;52.112;8.606;2023-04-15T09:31:33;9.43;;;8.02;;
10410;SDS011;5251;52.112;8.606;2023-04-15T09:33:59;9.80;;;8.32;;
10410;SDS011;5251;52.112;8.606;2023-04-15T09:36:25;9.65;;;8.23;;
10410;SDS011;5251;52.112;8.606;2023-04-15T09:38:57;9.45;;;8.23;;
10410;SDS011;5251;52.112;8.606;2023-04-15T09:41:23;8.70;;;7.10;;
10410;SDS011;5251;52.112;8.606;2023-04-15T09:43:50;8.98;;;6.68;;
10410;SDS011;5251;52.112;8.606;2023-04-15T09:46:15;9.07;;;7.00;;
10410;SDS011;5251;52.112;8.606;2023-04-15T09:48:41;7.60;;;6.65;;
10410;SDS011;5251;52.112;8.606;2023-04-15T09:51:07;7.38;;;6.38;;
10410;SDS011;5251;52.112;8.606;2023-04-15T09:53:33;7.35;;;6.57;;
10410;SDS011;5251;52.112;8.606;2023-04-15T09:56:00;7.95;;;6.38;;
10410;SDS011;5251;52.112;8.606;2023-04-15T09:58:28;7.55;;;6.43;;
10410;SDS011;5251;52.112;8.606;2023-04-15T10:00:55;7.50;;;6.28;;
10410;SDS011;5251;52.112;8.606;2023-04-15T10:03:22;7.45;;;5.93;;
10410;SDS011;5251;52.112;8.606;2023-04-15T10:05:55;7.18;;;5.82;;
10410;SDS011;5251;52.112;8.606;2023-04-15T10:08:23;7.38;;;6.10;;
10410;SDS011;5251;52.112;8.606;2023-04-15T10:10:51;7.40;;;6.10;;
10410;SDS011;5251;52.112;8.606;2023-04-15T10:13:18;6.85;;;5.82;;
10410;SDS011;5251;52.112;8.606;2023-04-15T10:15:50;6.97;;;5.63;;
10410;SDS011;5251;52.112;8.606;2023-04-15T10:18:19;7.35;;;5.85;;
10410;SDS011;5251;52.112;8.606;2023-04-15T10:20:47;6.65;;;5.80;;
10410;SDS011;5251;52.112;8.606;2023-04-15T10:23:14;7.10;;;5.65;;
10410;SDS011;5251;52.112;8.606;2023-04-15T10:25:39;7.43;;;5.68;;
10410;SDS011;5251;52.112;8.606;2023-04-15T10:28:06;8.70;;;5.75;;
10410;SDS011;5251;52.112;8.606;2023-04-15T10:30:35;6.60;;;5.80;;
10410;SDS011;5251;52.112;8.606;2023-04-15T10:33:01;6.13;;;5.53;;
10410;SDS011;5251;52.112;8.606;2023-04-15T10:35:28;7.00;;;6.30;;
10410;SDS011;5251;52.112;8.606;2023-04-15T10:37:55;6.70;;;5.90;;
10410;SDS011;5251;52.112;8.606;2023-04-15T10:40:30;7.57;;;6.32;;
10410;SDS011;5251;52.112;8.606;2023-04-15T10:42:57;7.85;;;6.53;;
10410;SDS011;5251;52.112;8.606;2023-04-15T10:45:25;7.10;;;6.20;;
10410;SDS011;5251;52.112;8.606;2023-04-15T10:47:53;7.38;;;6.20;;
10410;SDS011;5251;52.112;8.606;2023-04-15T10:50:20;7.20;;;6.50;;
10410;SDS011;5251;52.112;8.606;2023-04-15T10:52:48;8.07;;;6.90;;
10410;SDS011;5251;52.112;8.606;2023-04-15T10:55:19;7.68;;;6.75;;
10410;SDS011;5251;52.112;8.606;2023-04-15T10:57:46;7.00;;;6.30;;
10410;SDS011;5251;52.112;8.606;2023-04-15T11:00:19;7.60;;;6.65;;
10410;SDS011;5251;52.112;8.606;2023-04-15T11:05:22;7.43;;;6.38;;
10410;SDS011;5251;52.112;8.606;2023-04-15T11:08:10;7.65;;;6.85;;
10410;SDS011;5251;52.112;8.606;2023-04-15T11:13:03;8.43;;;7.03;;
10410;SDS011;5251;52.112;8.606;2023-04-15T11:23:26;7.13;;;6.43;;
10410;SDS011;5251;52.112;8.606;2023-04-15T11:25:57;8.02;;;6.75;;
10410;SDS011;5251;52.112;8.606;2023-04-15T11:28:30;6.68;;;6.07;;
10410;SDS011;5251;52.112;8.606;2023-04-15T11:30:56;6.50;;;5.90;;
10410;SDS011;5251;52.112;8.606;2023-04-15T11:33:23;6.68;;;6.03;;
10410;SDS011;5251;52.112;8.606;2023-04-15T11:35:49;7.15;;;6.13;;
10410;SDS011;5251;52.112;8.606;2023-04-15T11:38:17;6.55;;;5.85;;
10410;SDS011;5251;52.112;8.606;2023-04-15T11:40:43;6.55;;;5.95;;
10410;SDS011;5251;52.112;8.606;2023-04-15T11:43:10;6.22;;;5.50;;
10410;SDS011;5251;52.112;8.606;2023-04-15T11:45:46;5.80;;;5.25;;
10410;SDS011;5251;52.112;8.606;2023-04-15T11:48:18;6.38;;;5.50;;
10410;SDS011;5251;52.112;8.606;2023-04-15T11:50:51;5.28;;;4.78;;
10410;SDS011;5251;52.112;8.606;2023-04-15T11:53:25;5.60;;;5.10;;
10410;SDS011;5251;52.112;8.606;2023-04-15T11:56:05;5.80;;;5.20;;
10410;SDS011;5251;52.112;8.606;2023-04-15T11:58:32;4.85;;;4.45;;
10410;SDS011;5251;52.112;8.606;2023-04-15T12:01:00;5.65;;;5.10;;
10410;SDS011;5251;52.112;8.606;2023-04-15T12:03:29;5.88;;;5.10;;
10410;SDS011;5251;52.112;8.606;2023-04-15T12:06:05;4.82;;;4.43;;
10410;SDS011;5251;52.112;8.606;2023-04-15T12:08:52;5.88;;;4.80;;
10410;SDS011;5251;52.112;8.606;2023-04-15T12:14:24;5.70;;;5.20;;
10410;SDS011;5251;52.112;8.606;2023-04-15T12:16:53;5.47;;;4.97;;
10410;SDS011;5251;52.112;8.606;2023-04-15T12:21:54;5.30;;;4.80;;
10410;SDS011;5251;52.112;8.606;2023-04-15T12:24:24;5.65;;;5.13;;
10410;SDS011;5251;52.112;8.606;2023-04-15T12:26:53;5.80;;;5.30;;
10410;SDS011;5251;52.112;8.606;2023-04-15T12:29:24;5.70;;;5.20;;
10410;SDS011;5251;52.112;8.606;2023-04-15T12:34:28;6.30;;;5.70;;
10410;SDS011;5251;52.112;8.606;2023-04-15T12:37:09;5.80;;;5.30;;
10410;SDS011;5251;52.112;8.606;2023-04-15T12:39:38;5.88;;;5.38;;
10410;SDS011;5251;52.112;8.606;2023-04-15T12:42:08;6.30;;;5.70;;
10410;SDS011;5251;52.112;8.606;2023-04-15T12:44:35;5.82;;;5.25;;
10410;SDS011;5251;52.112;8.606;2023-04-15T12:47:01;5.78;;;5.25;;
10410;SDS011;5251;52.112;8.606;2023-04-15T12:49:27;6.32;;;5.70;;
10410;SDS011;5251;52.112;8.606;2023-04-15T12:51:54;6.53;;;5.88;;
10410;SDS011;5251;52.112;8.606;2023-04-15T12:54:21;6.30;;;5.80;;
10410;SDS011;5251;52.112;8.606;2023-04-15T12:56:47;5.90;;;5.40;;
10410;SDS011;5251;52.112;8.606;2023-04-15T12:59:14;5.78;;;5.28;;
10410;SDS011;5251;52.112;8.606;2023-04-15T13:01:41;5.57;;;5.07;;
10410;SDS011;5251;52.112;8.606;2023-04-15T13:04:07;6.03;;;5.43;;
10410;SDS011;5251;52.112;8.606;2023-04-15T13:06:33;5.43;;;4.93;;
10410;SDS011;5251;52.112;8.606;2023-04-15T13:08:58;5.63;;;5.13;;
10410;SDS011;5251;52.112;8.606;2023-04-15T13:11:25;5.60;;;5.10;;
10410;SDS011;5251;52.112;8.606;2023-04-15T13:13:53;5.85;;;5.25;;
10410;SDS011;5251;52.112;8.606;2023-04-15T13:16:19;5.55;;;5.05;;
10410;SDS011;5251;52.112;8.606;2023-04-15T13:18:45;6.82;;;5.90;;
10410;SDS011;5251;52.112;8.606;2023-04-15T13:21:12;6.93;;;5.47;;
10410;SDS011;5251;52.112;8.606;2023-04-15T13:23:37;6.88;;;5.70;;
10410;SDS011;5251;52.112;8.606;2023-04-15T13:26:03;7.07;;;5.78;;
10410;SDS011;5251;52.112;8.606;2023-04-15T13:28:29;6.00;;;5.40;;
10410;SDS011;5251;52.112;8.606;2023-04-15T13:30:55;8.90;;;7.20;;
10410;SDS011;5251;52.112;8.606;2023-04-15T13:33:20;6.78;;;6.07;;
10410;SDS011;5251;52.112;8.606;2023-04-15T13:35:46;6.70;;;6.00;;
10410;SDS011;5251;52.112;8.606;2023-04-15T13:38:11;6.15;;;5.53;;
10410;SDS011;5251;52.112;8.606;2023-04-15T13:40:37;7.10;;;6.10;;
10410;SDS011;5251;52.112;8.606;2023-04-15T13:43:03;8.13;;;6.43;;
10410;SDS011;5251;52.112;8.606;2023-04-15T13:45:28;6.45;;;5.85;;
10410;SDS011;5251;52.112;8.606;2023-04-15T13:47:55;7.28;;;6.13;;
10410;SDS011;5251;52.112;8.606;2023-04-15T13:50:21;6.85;;;6.15;;
10410;SDS011;5251;52.112;8.606;2023-04-15T13:52:47;7.47;;;6.32;;
10410;SDS011;5251;52.112;8.606;2023-04-15T13:55:12;9.55;;;6.88;;
10410;SDS011;5251;52.112;8.606;2023-04-15T13:57:38;7.07;;;6.15;;
10410;SDS011;5251;52.112;8.606;2023-04-15T14:00:04;7.18;;;6.47;;
10410;SDS011;5251;52.112;8.606;2023-04-15T14:02:30;7.93;;;7.07;;
10410;SDS011;5251;52.112;8.606;2023-04-15T14:04:56;7.53;;;6.10;;
10410;SDS011;5251;52.112;8.606;2023-04-15T14:07:21;6.75;;;6.15;;
10410;SDS011;5251;52.112;8.606;2023-04-15T14:09:47;6.80;;;6.10;;
10410;SDS011;5251;52.112;8.606;2023-04-15T14:12:13;10.52;;;7.40;;
10410;SDS011;5251;52.112;8.606;2023-04-15T14:14:39;8.80;;;7.40;;
10410;SDS011;5251;52.112;8.606;2023-04-15T14:17:05;9.18;;;8.02;;
10410;SDS011;5251;52.112;8.606;2023-04-15T14:19:31;10.02;;;7.68;;
10410;SDS011;5251;52.112;8.606;2023-04-15T14:21:57;9.43;;;7.47;;
10410;SDS011;5251;52.112;8.606;2023-04-15T14:24:23;9.05;;;7.95;;
10410;SDS011;5251;52.112;8.606;2023-04-15T14:26:48;8.00;;;7.20;;
10410;SDS011;5251;52.112;8.606;2023-04-15T14:29:14;9.13;;;8.13;;
10410;SDS011;5251;52.112;8.606;2023-04-15T14:31:40;8.85;;;7.70;;
10410;SDS011;5251;52.112;8.606;2023-04-15T14:34:08;12.75;;;8.82;;
10410;SDS011;5251;52.112;8.606;2023-04-15T14:36:35;15.23;;;11.25;;
10410;SDS011;5251;52.112;8.606;2023-04-15T14:39:00;13.52;;;10.10;;
10410;SDS011;5251;52.112;8.606;2023-04-15T14:41:27;10.10;;;8.52;;
10410;SDS011;5251;52.112;8.606;2023-04-15T14:43:53;9.82;;;8.55;;
10410;SDS011;5251;52.112;8.606;2023-04-15T14:46:19;9.63;;;8.35;;
10410;SDS011;5251;52.112;8.606;2023-04-15T14:48:44;11.85;;;8.95;;
10410;SDS011;5251;52.112;8.606;2023-04-15T14:51:10;12.23;;;8.65;;
10410;SDS011;5251;52.112;8.606;2023-04-15T14:53:36;10.45;;;8.60;;
10410;SDS011;5251;52.112;8.606;2023-04-15T14:56:01;10.80;;;7.93;;
10410;SDS011;5251;52.112;8.606;2023-04-15T14:58:27;11.52;;;8.35;;
10410;SDS011;5251;52.112;8.606;2023-04-15T15:00:53;11.13;;;8.57;;
10410;SDS011;5251;52.112;8.606;2023-04-15T15:03:18;9.82;;;7.72;;
10410;SDS011;5251;52.112;8.606;2023-04-15T15:05:44;9.40;;;8.07;;
10410;SDS011;5251;52.112;8.606;2023-04-15T15:08:11;11.02;;;8.35;;
10410;SDS011;5251;52.112;8.606;2023-04-15T15:10:37;10.85;;;8.15;;